RJOI/IWA METAR and TAF weather

Enter ICAO airport designator
Station Type Date Time Source
RJOI METAR 2020/07/11 23:55 UTC NOAA

RJOI 112355Z 05005KT 9999 FEW015 BKN035 OVC160 25/19 A2986 RMK SLP112 60001 T02500189 10250 20233 53014


Station Type Date Time Source
RJOI Decoded METAR 2020/07/11 23:55 UTC NOAA

MCAS IWAKUNI,JAPAN, JA, Japan (RJOI) 34-09N 132-14E 5M
Jul 11, 2020 - 07:55 PM EDT / 2020.07.11 2355 UTC
Wind: from the NE (050 degrees) at 6 MPH (5 KT):0
Visibility: greater than 7 mile(s):0
Sky conditions: overcast
Temperature: 77.0 F (25.0 C)
Dew Point: 66.0 F (18.9 C)
Relative Humidity: 68%
Pressure (altimeter): 29.86 in. Hg (1011 hPa)
Pressure tendency: 0.04 inches (1.4 hPa) higher than three hours ago
ob: RJOI 112355Z 05005KT 9999 FEW015 BKN035 OVC160 25/19 A2986 RMK SLP112 60001 T02500189 10250 20233 53014
cycle: 0

Station Type Date Time Source
RJOI TAF 2020/07/11 21:54 UTC NOAA

TAF TAF RJOI 1121/1221 VRB06KT 9999 VCSH FEW025 BKN050 BKN120 QNH2980INS
TEMPO 1121/1203 9000 -SHRA BR SCT020 BKN035 OVC100
FM120300 15010KT 9999 VCSH FEW020 SCT040 BKN160 QNH2977INS
BECMG 1205/1206 17010KT 9999 NSW SCT020 SCT040 BKN120 QNH2975INS
FM120800 VRB06KT 9999 VCSH FEW020 SCT035 OVC120 QNH2978INS
TEMPO 1208/1212 9000 -SHRA BR SCT015 BKN035 OVC080
FM121200 VRB06KT 8000 -SHRA BR FEW008 SCT015 BKN030 OVC050 QNH2974INS
FM121700 VRB06KT 4800 SHRA BR SCT008 BKN020 OVC035 QNH2972INS T27/1206Z T21/1221Z

Example: see airport list